»·PEaware :: N1399 KBFI-KAWO

N1399 :: KBFI-KAWO

FLIGHT INFORMATION

Flight Status: Arrived
Operator: Privately registered:
United States
More flights under this callsign
Pilot: David C. (16084)
Aircraft: PIPER PA-31/31P NAVAJO CHIEFTAIN
(PA31)
More flights by this aircraft type
Origin: KBFI Boeing Field/King Co Intl
United States
Destination: KAWO Arlington Mun
United States
More flights between these airports :: More routes between these airports
Route: +
File this flight plan on PilotEdge
Remarks:
Altitude:
(Current/Filed)
5,500ft
Speed:
(Current/Filed)
0kts
Departed: 04-Mar-18 10:54 AM
Arrived: 04-Mar-18 11:33 AM
Distance/Time
Traveled:
38nm/0:38
Distance/Time
To Go:
Arrived

Flight Plot

Page will automatically refresh every two minutes.

Flight plan parsing failed; only flown route is shown


Map Options




Map Legend


Flown Route
Filed Route
Departure Airport
Arrival Airport
Navaid (VOR, NDB)
Fix

Horizontal Profiles

Position Reports

Time Latitude Longitude Heading Altitude Ground
Speed
04-Mar-18 10:50 47.525887 -122.301294 154 24ft 0kts
04-Mar-18 10:51 47.525845 -122.301239 114 24ft 2kts
04-Mar-18 10:52 47.528155 -122.302465 330 24ft 21kts
04-Mar-18 10:53 47.533888 -122.307270 330 24ft 30kts
04-Mar-18 10:54 47.539598 -122.312086 331 24ft 3kts
04-Mar-18 10:55 47.539603 -122.312090 331 24ft 0kts
04-Mar-18 10:56 47.539603 -122.312090 331 24ft 0kts
04-Mar-18 10:57 47.539603 -122.312090 331 24ft 0kts
04-Mar-18 10:58 47.539603 -122.312090 331 24ft 0kts
04-Mar-18 10:59 47.539603 -122.312090 331 24ft 0kts
04-Mar-18 11:00 47.540037 -122.312482 327 24ft 10kts
04-Mar-18 11:01 47.537818 -122.309160 150 24ft 78kts
04-Mar-18 11:02 47.516157 -122.282119 102 996ft 126kts
04-Mar-18 11:03 47.522281 -122.234802 61 2009ft 155kts
04-Mar-18 11:04 47.544584 -122.178235 61 2001ft 177kts
04-Mar-18 11:05 47.568245 -122.118186 61 1999ft 179kts
04-Mar-18 11:06 47.592249 -122.061409 37 1981ft 171kts
04-Mar-18 11:07 47.627054 -122.033557 29 3800ft 145kts
04-Mar-18 11:08 47.664490 -122.003947 29 4507ft 192kts
04-Mar-18 11:09 47.708190 -121.969060 29 4496ft 191kts
04-Mar-18 11:10 47.752555 -121.933860 29 4489ft 190kts
04-Mar-18 11:11 47.796691 -121.899130 29 4646ft 182kts
04-Mar-18 11:12 47.838349 -121.877861 1 6034ft 175kts
04-Mar-18 11:13 47.886709 -121.876940 0 6487ft 202kts
04-Mar-18 11:14 47.933079 -121.892328 345 6486ft 180kts
04-Mar-18 11:15 47.974204 -121.907926 345 6397ft 179kts
04-Mar-18 11:16 48.014985 -121.927836 340 5372ft 183kts
04-Mar-18 11:17 48.053684 -121.957927 331 4506ft 170kts
04-Mar-18 11:18 48.085142 -121.989889 319 4246ft 155kts
04-Mar-18 11:19 48.111923 -122.028471 315 3290ft 171kts
04-Mar-18 11:20 48.139229 -122.072202 313 2892ft 147kts
04-Mar-18 11:21 48.162658 -122.109704 313 2905ft 145kts
04-Mar-18 11:22 48.179996 -122.154794 274 2903ft 159kts
04-Mar-18 11:23 48.182154 -122.211252 273 2900ft 162kts
04-Mar-18 11:24 48.211305 -122.235892 2 2919ft 161kts
04-Mar-18 11:25 48.223387 -122.195261 119 2703ft 162kts
04-Mar-18 11:26 48.200311 -122.154934 124 1771ft 145kts
04-Mar-18 11:27 48.201848 -122.121242 33 1678ft 137kts
04-Mar-18 11:28 48.225818 -122.137771 282 1466ft 141kts
04-Mar-18 11:29 48.209475 -122.173932 230 1251ft 142kts
04-Mar-18 11:30 48.194429 -122.217732 271 1107ft 132kts
04-Mar-18 11:31 48.216862 -122.230302 29 1126ft 127kts
04-Mar-18 11:32 48.225817 -122.191788 98 1638ft 147kts
04-Mar-18 11:33 48.212217 -122.156129 167 1635ft 115kts
04-Mar-18 11:34 48.190099 -122.156827 180 984ft 87kts
04-Mar-18 11:35 48.171062 -122.156687 186 337ft 97kts
04-Mar-18 11:36 48.147003 -122.174550 213 1049ft 130kts
04-Mar-18 11:37 48.124760 -122.178386 118 1254ft 99kts
04-Mar-18 11:38 48.134535 -122.156760 8 1068ft 87kts
04-Mar-18 11:39 48.153230 -122.156146 359 295ft 84kts
04-Mar-18 11:40 48.168457 -122.156531 0 145ft 17kts
04-Mar-18 11:41 48.168040 -122.154448 178 145ft 20kts
04-Mar-18 11:42 48.163368 -122.154319 179 145ft 23kts
04-Mar-18 11:43 48.161231 -122.153843 84 145ft 0kts

Navigation Log

Ident Type
Flight plan parsing failed, navigation log unavailable